Boothia: Past 24 Hour Conditions

 

Nain Airport

12:00 PM AST 27 November 2014
This table is a summary of hourly weather conditions for the past 24 hours.
Date / Time
(AST)
Wind(knots) Conditions Visibility(km) Pressure(kPa) Air tempC) Relative humidity(%) Dew pointC) Wind Chill
27 November 2014
12:00 W 11 Sunny 24 101.7 -11 56 -18 -19
11:00 W 10 Sunny 24 101.8 -11 53 -18 -18
10:00 WNW 13 Sunny 24 101.8 -11 72 -15 -20
9:00 WNW 10 Sunny 24 101.9 -11 68 -16 -19
8:00 WNW 12 Mainly Clear 24 101.9 -11 63 -17 -20
7:00 WNW 18 Clear 24 101.8 -11 63 -17 -22
6:00 WNW 20 gust 26 Mainly Clear 24 101.9 -11 69 -15 -22
5:00 W 16 gust 21 N/A N/A 101.8 -11 68 -16 -20
4:00 W 19 N/A N/A 101.8 -10 69 -15 -21
3:00 WNW 11 gust 18 N/A N/A 101.8 -10 67 -15 -18
2:00 WNW 13 gust 18 N/A N/A 101.8 -10 66 -15 -18
1:00 WNW 10 N/A N/A 101.7 -9 68 -14 -16
0:00 WNW 14 N/A N/A 101.7 -9 67 -14 -17
26 November 2014
23:00 W 9 N/A N/A 101.7 -10 72 -14 -18
22:00 WNW 11 gust 19 N/A N/A 101.7 -8 68 -13 -16
21:00 WNW 8 N/A N/A 101.7 -9 71 -13 -15
20:00 W 10 gust 15 Mainly Clear 24 101.7 -9 59 -16 -17
19:00 WNW 10 gust 18 Mainly Clear 24 101.6 -9 56 -16 -16
18:00 WNW 13 Mainly Clear 24 101.6 -9 59 -15 -17
17:00 W 13 gust 19 Partly Cloudy 24 101.6 -9 56 -16 -17
16:00 W 16 Mostly Cloudy 24 101.4 -8 61 -14 -17
15:00 W 10 gust 22 Mostly Cloudy 24 101.3 -7 57 -14 -14
14:00 WNW 21 gust 29 Mostly Cloudy 24 101.1 -7 61 -13 -17
13:00 W 12 gust 21 Mostly Cloudy 24 101.1 -6 62 -13 -14
12:00 WNW 16 gust 21 Partly Cloudy 24 101.0 -6 61 -12 -14
 
Map of Arctic - Eastern Arctic marine weather areas Baker Lake Airport Chesterfield Inlet Airport Coral Harbour Airport Gjoa Haven Airport Kugaaruk Airport Rankin Inlet Airport Shepherd Bay Airport Whale Cove Airport Arctic Bay Brevoort Island Qikiqtarjuaq Airport Cape Dorset Airport Cape Dyer Cape Hooper Clyde Airport Grise Fiord Airport Hall Beach Airport Igloolik Airport Iqaluit Airport Longstaff Bluff Pangnirtung Airport Pond Inlet Airport Repulse Bay Airport Resolute Airport Resolution Island Rowley Island Airport Taloyoak Airport Wager Bay Akulivik Airport Ivujivik Airport Puvirnituq Airport Kangiqsujuaq Airport Kangirsuk Airport Quaqtaq Airport Tasiujaq Airport Cape Kakkiviak Cape Kiglapait Nain Airport Saglek Cape Mercy Kimmirut Airport Aupaluk Airport Salluit Airport Kangiqsualujjuaq Airport Fort Ross
Legend: buoyBuoy land stationLand Station